Time,TemperatureF,DewpointF,PressureIn,WindDirection,WindDirectionDegrees,WindSpeedMPH,WindSpeedGustMPH,Humidity,HourlyPrecipIn,Conditions,Clouds,dailyrainin,SoftwareType,DateUTC
2013-02-14 00:00:00,32.9,25.5,29.69,North,355,0.0,1.0,74,0.00,,OVC055,0.00,VWS V14.00,2013-02-14 05:00:00,
2013-02-14 00:05:00,32.9,25.2,29.69,North,355,0.0,1.0,73,0.00,,OVC055,0.00,VWS V14.00,2013-02-14 05:05:00,
2013-02-14 00:10:00,32.8,24.8,29.69,North,355,0.0,2.0,72,0.00,,OVC055,0.00,VWS V14.00,2013-02-14 05:10:00,
2013-02-14 00:15:00,32.9,25.2,29.69,NNW,345,0.0,2.0,73,0.00,,OVC055,0.00,VWS V14.00,2013-02-14 05:15:00,
2013-02-14 00:20:00,32.9,24.5,29.68,NNW,345,0.0,2.0,71,0.00,,OVC055,0.00,VWS V14.00,2013-02-14 05:20:00,
2013-02-14 00:25:00,32.9,24.5,29.68,NNW,345,0.0,2.0,71,0.00,,OVC055,0.00,VWS V14.00,2013-02-14 05:25:00,
2013-02-14 00:30:00,33.0,24.3,29.68,NNW,347,0.0,1.0,70,0.00,,OVC055,0.00,VWS V14.00,2013-02-14 05:30:00,
2013-02-14 00:35:00,33.1,24.4,29.68,ENE,77,0.0,5.0,70,0.00,,OVC055,0.00,VWS V14.00,2013-02-14 05:35:00,
2013-02-14 00:40:00,33.1,24.0,29.67,NNE,26,0.0,5.0,69,0.00,,OVC055,0.00,VWS V14.00,2013-02-14 05:40:00,
2013-02-14 00:45:00,33.2,24.1,29.67,ENE,78,0.0,5.0,69,0.00,,OVC055,0.00,VWS V14.00,2013-02-14 05:45:00,
2013-02-14 00:50:00,33.3,23.9,29.67,NE,50,0.0,5.0,68,0.00,,OVC055,0.00,VWS V14.00,2013-02-14 05:50:00,
2013-02-14 00:55:00,33.3,23.5,29.67,NE,50,0.0,5.0,67,0.00,,OVC055,0.00,VWS V14.00,2013-02-14 05:55:00,
2013-02-14 01:00:00,33.3,23.2,29.67,North,360,0.0,5.0,66,0.00,,OVC055,0.00,VWS V14.00,2013-02-14 06:00:00,
2013-02-14 01:05:00,33.4,22.9,29.67,WNW,301,0.0,5.0,65,0.00,,OVC055,0.00,VWS V14.00,2013-02-14 06:05:00,
2013-02-14 01:10:00,33.3,23.5,29.67,NNE,28,0.0,5.0,67,0.00,,OVC055,0.00,VWS V14.00,2013-02-14 06:10:00,
2013-02-14 01:15:00,33.3,22.8,29.67,ENE,67,0.0,5.0,65,0.00,,OVC055,0.00,VWS V14.00,2013-02-14 06:15:00,
2013-02-14 01:20:00,33.3,22.8,29.67,ENE,67,0.0,5.0,65,0.00,,OVC055,0.00,VWS V14.00,2013-02-14 06:20:00,
2013-02-14 01:25:00,33.2,23.5,29.68,ENE,67,0.0,5.0,67,0.00,,OVC055,0.00,VWS V14.00,2013-02-14 06:25:00,
2013-02-14 01:30:00,33.2,22.7,29.69,ENE,67,0.0,2.0,65,0.00,,OVC055,0.00,VWS V14.00,2013-02-14 06:30:00,
2013-02-14 01:35:00,33.2,22.7,29.71,ENE,67,1.0,2.0,65,0.00,,OVC055,0.00,VWS V14.00,2013-02-14 06:35:00,
2013-02-14 01:40:00,33.3,23.2,29.73,ENE,67,0.0,2.0,66,0.00,,OVC055,0.00,VWS V14.00,2013-02-14 06:40:00,
2013-02-14 01:45:00,32.8,24.1,29.73,ENE,67,0.0,2.0,70,0.00,,OVC055,0.00,VWS V14.00,2013-02-14 06:45:00,
2013-02-14 01:50:00,32.4,23.7,29.73,ENE,67,0.0,2.0,70,0.00,,OVC055,0.00,VWS V14.00,2013-02-14 06:50:00,
2013-02-14 01:55:00,32.2,24.5,29.73,ENE,67,0.0,2.0,73,0.00,,OVC055,0.00,VWS V14.00,2013-02-14 06:55:00,
2013-02-14 02:00:00,32.0,23.7,29.73,ENE,67,0.0,0.0,71,0.00,,OVC055,0.00,VWS V14.00,2013-02-14 07:00:00,
2013-02-14 02:05:00,32.0,24.3,29.73,ENE,67,0.0,1.0,73,0.00,,OVC055,0.00,VWS V14.00,2013-02-14 07:05:00,
2013-02-14 02:10:00,31.9,23.9,29.72,ENE,67,0.0,1.0,72,0.00,,OVC055,0.00,VWS V14.00,2013-02-14 07:10:00,
2013-02-14 02:15:00,32.1,23.8,29.72,ENE,67,0.0,1.0,71,0.00,,OVC055,0.00,VWS V14.00,2013-02-14 07:15:00,
2013-02-14 02:20:00,32.3,24.0,29.72,ENE,58,1.0,2.0,71,0.00,,OVC055,0.00,VWS V14.00,2013-02-14 07:20:00,
2013-02-14 02:25:00,32.4,24.4,29.72,ENE,58,0.0,2.0,72,0.00,,OVC055,0.00,VWS V14.00,2013-02-14 07:25:00,
2013-02-14 02:30:00,32.4,24.4,29.72,ENE,58,0.0,1.0,72,0.00,,OVC055,0.00,VWS V14.00,2013-02-14 07:30:00,
2013-02-14 02:35:00,32.3,24.3,29.72,ENE,58,0.0,1.0,72,0.00,,OVC055,0.00,VWS V14.00,2013-02-14 07:35:00,
2013-02-14 02:40:00,32.1,25.1,29.72,ENE,58,0.0,1.0,75,0.00,,OVC055,0.00,VWS V14.00,2013-02-14 07:40:00,
2013-02-14 02:45:00,32.0,24.0,29.72,ENE,58,0.0,1.0,72,0.00,,OVC055,0.00,VWS V14.00,2013-02-14 07:45:00,
2013-02-14 02:50:00,32.2,23.9,29.72,ENE,58,1.0,2.0,71,0.00,,OVC055,0.00,VWS V14.00,2013-02-14 07:50:00,
2013-02-14 02:55:00,32.1,24.1,29.71,ENE,58,0.0,2.0,72,0.00,,OVC055,0.00,VWS V14.00,2013-02-14 07:55:00,
2013-02-14 03:00:00,32.1,24.1,29.71,ENE,58,0.0,1.0,72,0.00,,OVC055,0.00,VWS V14.00,2013-02-14 08:00:00,
2013-02-14 03:05:00,32.1,24.1,29.72,ENE,58,0.0,1.0,72,0.00,,OVC055,0.00,VWS V14.00,2013-02-14 08:05:00,
2013-02-14 03:10:00,32.0,24.7,29.71,ENE,58,0.0,1.0,74,0.00,,OVC055,0.00,VWS V14.00,2013-02-14 08:10:00,
2013-02-14 03:15:00,32.0,24.3,29.71,ENE,58,0.0,1.0,73,0.00,,OVC055,0.00,VWS V14.00,2013-02-14 08:15:00,
2013-02-14 03:20:00,32.1,24.1,29.71,ENE,58,0.0,1.0,72,0.00,,OVC055,0.00,VWS V14.00,2013-02-14 08:20:00,
2013-02-14 03:25:00,32.1,24.1,29.71,ENE,58,0.0,1.0,72,0.00,,OVC055,0.00,VWS V14.00,2013-02-14 08:25:00,
2013-02-14 03:30:00,32.3,24.3,29.71,ENE,58,0.0,2.0,72,0.00,,OVC055,0.00,VWS V14.00,2013-02-14 08:30:00,
2013-02-14 03:35:00,32.4,24.4,29.71,ENE,58,0.0,2.0,72,0.00,,OVC055,0.00,VWS V14.00,2013-02-14 08:35:00,
2013-02-14 03:40:00,32.3,24.3,29.72,ENE,58,0.0,2.0,72,0.00,,OVC055,0.00,VWS V14.00,2013-02-14 08:40:00,
2013-02-14 03:45:00,32.3,24.0,29.72,ENE,58,0.0,2.0,71,0.00,,OVC055,0.00,VWS V14.00,2013-02-14 08:45:00,
2013-02-14 03:50:00,32.2,24.9,29.73,ENE,58,0.0,2.0,74,0.00,,OVC055,0.00,VWS V14.00,2013-02-14 08:50:00,
2013-02-14 03:55:00,32.0,25.0,29.73,ENE,58,0.0,2.0,75,0.00,,OVC055,0.00,VWS V14.00,2013-02-14 08:55:00,
2013-02-14 04:00:00,31.9,24.6,29.73,ENE,58,1.0,2.0,74,0.00,,OVC055,0.00,VWS V14.00,2013-02-14 09:00:00,
2013-02-14 04:05:00,31.9,25.2,29.73,ENE,58,0.0,2.0,76,0.00,,OVC060,0.00,VWS V14.00,2013-02-14 09:05:00,
2013-02-14 04:10:00,31.8,24.8,29.73,WNW,295,0.0,3.0,75,0.00,,OVC060,0.00,VWS V14.00,2013-02-14 09:10:00,
2013-02-14 04:15:00,32.0,24.7,29.73,NW,320,0.0,3.0,74,0.00,,OVC060,0.00,VWS V14.00,2013-02-14 09:15:00,
2013-02-14 04:20:00,32.1,24.8,29.73,NW,320,0.0,3.0,74,0.00,,OVC060,0.00,VWS V14.00,2013-02-14 09:20:00,
2013-02-14 04:25:00,32.0,24.7,29.73,NW,320,0.0,3.0,74,0.00,,OVC060,0.00,VWS V14.00,2013-02-14 09:25:00,
2013-02-14 04:30:00,32.1,24.4,29.73,NW,320,0.0,0.0,73,0.00,,OVC060,0.00,VWS V14.00,2013-02-14 09:30:00,
2013-02-14 04:35:00,32.0,24.7,29.73,NW,320,0.0,1.0,74,0.00,,OVC060,0.00,VWS V14.00,2013-02-14 09:35:00,
2013-02-14 04:40:00,31.9,24.9,29.73,NW,320,1.0,1.0,75,0.00,,OVC060,0.00,VWS V14.00,2013-02-14 09:40:00,
2013-02-14 04:45:00,31.8,24.8,29.73,NW,320,0.0,1.0,75,0.00,,OVC060,0.00,VWS V14.00,2013-02-14 09:45:00,
2013-02-14 04:50:00,31.8,24.8,29.73,NW,320,0.0,1.0,75,0.00,,OVC060,0.00,VWS V14.00,2013-02-14 09:50:00,
2013-02-14 04:55:00,31.8,24.5,29.74,NW,317,0.0,4.0,74,0.00,,OVC060,0.00,VWS V14.00,2013-02-14 09:55:00,
2013-02-14 05:00:00,31.8,24.5,29.74,NW,317,0.0,1.0,74,0.00,,OVC060,0.00,VWS V14.00,2013-02-14 10:00:00,
2013-02-14 05:05:00,31.7,24.7,29.74,NW,317,0.0,1.0,75,0.00,,BKN060,0.00,VWS V14.00,2013-02-14 10:05:00,
2013-02-14 05:10:00,31.6,24.6,29.74,NW,317,3.0,3.0,75,0.00,,BKN060,0.00,VWS V14.00,2013-02-14 10:10:00,
2013-02-14 05:15:00,31.6,24.6,29.74,NW,317,0.0,3.0,75,0.00,,BKN060,0.00,VWS V14.00,2013-02-14 10:15:00,
2013-02-14 05:20:00,31.6,24.3,29.74,NW,317,0.0,3.0,74,0.00,,BKN060,0.00,VWS V14.00,2013-02-14 10:20:00,
2013-02-14 05:25:00,31.6,24.3,29.74,NW,317,1.0,3.0,74,0.00,,BKN060,0.00,VWS V14.00,2013-02-14 10:25:00,
2013-02-14 05:30:00,31.5,24.5,29.74,NW,317,0.0,1.0,75,0.00,,BKN060,0.00,VWS V14.00,2013-02-14 10:30:00,
2013-02-14 05:35:00,31.5,24.5,29.75,NW,317,0.0,1.0,75,0.00,,BKN060,0.00,VWS V14.00,2013-02-14 10:35:00,
2013-02-14 05:40:00,31.5,24.5,29.75,NW,317,0.0,1.0,75,0.00,,BKN060,0.00,VWS V14.00,2013-02-14 10:40:00,
2013-02-14 05:45:00,31.4,24.4,29.74,NW,317,0.0,1.0,75,0.00,,BKN060,0.00,VWS V14.00,2013-02-14 10:45:00,
2013-02-14 05:50:00,31.3,24.3,29.74,NNW,348,0.0,2.0,75,0.00,,BKN060,0.00,VWS V14.00,2013-02-14 10:50:00,
2013-02-14 05:55:00,31.3,24.3,29.74,NNW,348,0.0,2.0,75,0.00,,BKN060,0.00,VWS V14.00,2013-02-14 10:55:00,
2013-02-14 06:00:00,31.1,24.4,29.74,NNW,348,0.0,1.0,76,0.00,,BKN060,0.00,VWS V14.00,2013-02-14 11:00:00,
2013-02-14 06:05:00,30.9,24.2,29.74,NW,324,0.0,4.0,76,0.00,,BKN060,0.00,VWS V14.00,2013-02-14 11:05:00,
2013-02-14 06:10:00,30.8,24.1,29.75,NW,325,0.0,4.0,76,0.00,,BKN060,0.00,VWS V14.00,2013-02-14 11:10:00,
2013-02-14 06:15:00,30.6,24.3,29.75,NW,325,0.0,4.0,77,0.00,,BKN060,0.00,VWS V14.00,2013-02-14 11:15:00,
2013-02-14 06:20:00,30.6,24.3,29.75,NW,325,0.0,4.0,77,0.00,,BKN060,0.00,VWS V14.00,2013-02-14 11:20:00,
2013-02-14 06:25:00,30.4,24.4,29.75,NW,325,0.0,4.0,78,0.00,,BKN060,0.00,VWS V14.00,2013-02-14 11:25:00,
2013-02-14 06:30:00,30.1,24.1,29.75,NW,325,0.0,1.0,78,0.00,,BKN060,0.00,VWS V14.00,2013-02-14 11:30:00,
2013-02-14 06:35:00,29.9,24.2,29.75,NW,325,0.0,2.0,79,0.00,,BKN060,0.00,VWS V14.00,2013-02-14 11:35:00,
2013-02-14 06:40:00,29.7,24.0,29.75,NW,325,0.0,2.0,79,0.00,,BKN060,0.00,VWS V14.00,2013-02-14 11:40:00,
2013-02-14 06:45:00,29.4,24.0,29.75,NW,325,0.0,2.0,80,0.00,,BKN060,0.00,VWS V14.00,2013-02-14 11:45:00,
2013-02-14 06:50:00,29.2,23.8,29.75,NW,325,0.0,2.0,80,0.00,,BKN060,0.00,VWS V14.00,2013-02-14 11:50:00,
2013-02-14 06:55:00,29.0,23.6,29.76,NW,325,0.0,2.0,80,0.00,,BKN060,0.00,VWS V14.00,2013-02-14 11:55:00,
2013-02-14 07:00:00,28.7,23.6,29.76,NW,325,0.0,0.0,81,0.00,,BKN060,0.00,VWS V14.00,2013-02-14 12:00:00,
2013-02-14 07:05:00,28.8,23.7,29.77,NW,325,0.0,0.0,81,0.00,,BKN250,0.00,VWS V14.00,2013-02-14 12:05:00,
2013-02-14 07:10:00,28.8,23.7,29.77,NW,325,0.0,2.0,81,0.00,,BKN250,0.00,VWS V14.00,2013-02-14 12:10:00,
2013-02-14 07:15:00,28.8,24.0,29.77,NW,325,0.0,2.0,82,0.00,,BKN250,0.00,VWS V14.00,2013-02-14 12:15:00,
2013-02-14 07:20:00,29.1,24.3,29.77,NW,311,1.0,3.0,82,0.00,,BKN250,0.00,VWS V14.00,2013-02-14 12:20:00,
2013-02-14 07:25:00,29.8,24.4,29.77,NE,53,0.0,3.0,80,0.00,,BKN250,0.00,VWS V14.00,2013-02-14 12:25:00,
2013-02-14 07:30:00,30.6,24.6,29.78,West,271,0.0,3.0,78,0.00,,BKN250,0.00,VWS V14.00,2013-02-14 12:30:00,
2013-02-14 07:35:00,31.4,24.7,29.78,West,271,0.0,3.0,76,0.00,,BKN250,0.00,VWS V14.00,2013-02-14 12:35:00,
2013-02-14 07:40:00,31.7,24.7,29.78,West,272,0.0,3.0,75,0.00,,BKN250,0.00,VWS V14.00,2013-02-14 12:40:00,
2013-02-14 07:45:00,31.8,24.5,29.79,West,272,0.0,3.0,74,0.00,,BKN250,0.00,VWS V14.00,2013-02-14 12:45:00,
2013-02-14 07:50:00,31.8,24.5,29.79,WNW,302,0.0,4.0,74,0.00,,BKN250,0.00,VWS V14.00,2013-02-14 12:50:00,
2013-02-14 07:55:00,31.9,24.6,29.79,NW,311,1.0,4.0,74,0.00,,BKN250,0.00,VWS V14.00,2013-02-14 12:55:00,
2013-02-14 08:00:00,32.0,24.3,29.79,NNW,332,0.0,1.0,73,0.00,,BKN250,0.00,VWS V14.00,2013-02-14 13:00:00,
2013-02-14 08:05:00,32.2,24.5,29.79,NE,53,0.0,5.0,73,0.00,,BKN150,0.00,VWS V14.00,2013-02-14 13:05:00,
2013-02-14 08:10:00,32.3,24.6,29.80,WNW,298,2.0,5.0,73,0.00,,BKN150,0.00,VWS V14.00,2013-02-14 13:10:00,
2013-02-14 08:15:00,32.2,24.5,29.80,WNW,301,1.0,5.0,73,0.00,,BKN150,0.00,VWS V14.00,2013-02-14 13:15:00,
2013-02-14 08:20:00,32.4,24.4,29.80,West,269,0.0,5.0,72,0.00,,BKN150,0.00,VWS V14.00,2013-02-14 13:20:00,
2013-02-14 08:25:00,32.3,24.6,29.80,WNW,292,2.0,5.0,73,0.00,,BKN150,0.00,VWS V14.00,2013-02-14 13:25:00,
2013-02-14 08:30:00,32.1,24.4,29.80,NNW,329,0.0,2.0,73,0.00,,BKN150,0.00,VWS V14.00,2013-02-14 13:30:00,
2013-02-14 08:35:00,32.7,24.7,29.79,NNE,31,0.0,5.0,72,0.00,,BKN150,0.00,VWS V14.00,2013-02-14 13:35:00,
2013-02-14 08:40:00,33.0,24.6,29.80,SE,142,3.0,5.0,71,0.00,,BKN150,0.00,VWS V14.00,2013-02-14 13:40:00,
2013-02-14 08:45:00,33.4,24.7,29.79,South,183,2.0,5.0,70,0.00,,BKN150,0.00,VWS V14.00,2013-02-14 13:45:00,
2013-02-14 08:50:00,33.6,24.9,29.79,SW,233,1.0,6.0,70,0.00,,BKN150,0.00,VWS V14.00,2013-02-14 13:50:00,
2013-02-14 08:55:00,33.7,25.0,29.80,WSW,258,0.0,6.0,70,0.00,,BKN150,0.00,VWS V14.00,2013-02-14 13:55:00,
2013-02-14 09:00:00,33.9,24.8,29.79,ENE,78,3.0,9.0,69,0.00,,BKN150,0.00,VWS V14.00,2013-02-14 14:00:00,
2013-02-14 09:05:00,34.1,25.0,29.79,ENE,67,4.0,9.0,69,0.00,,SCT200,0.00,VWS V14.00,2013-02-14 14:05:00,
2013-02-14 09:10:00,34.4,25.0,29.79,East,84,5.0,9.0,68,0.00,,SCT200,0.00,VWS V14.00,2013-02-14 14:10:00,
2013-02-14 09:15:00,34.6,24.8,29.80,NE,44,0.0,9.0,67,0.00,,SCT200,0.00,VWS V14.00,2013-02-14 14:15:00,
2013-02-14 09:20:00,35.2,25.4,29.80,NNW,341,3.0,9.0,67,0.00,,SCT200,0.00,VWS V14.00,2013-02-14 14:20:00,
2013-02-14 09:25:00,35.3,24.7,29.80,South,188,2.0,9.0,65,0.00,,SCT200,0.00,VWS V14.00,2013-02-14 14:25:00,
2013-02-14 09:30:00,35.4,24.1,29.80,North,355,1.0,7.0,63,0.00,,SCT200,0.00,VWS V14.00,2013-02-14 14:30:00,
2013-02-14 09:35:00,35.8,24.1,29.80,NNW,330,1.0,7.0,62,0.00,,SCT200,0.00,VWS V14.00,2013-02-14 14:35:00,
2013-02-14 09:40:00,35.6,23.9,29.81,WSW,241,4.0,9.0,62,0.00,,SCT200,0.00,VWS V14.00,2013-02-14 14:40:00,
2013-02-14 09:45:00,36.1,23.6,29.81,East,99,1.0,9.0,60,0.00,,SCT200,0.00,VWS V14.00,2013-02-14 14:45:00,
2013-02-14 09:49:00,36.1,22.8,29.81,West,275,1.0,9.0,58,0.00,,SCT200,0.00,VWS V14.00,2013-02-14 14:49:00,
2013-02-14 09:54:00,36.2,22.9,29.81,ENE,68,2.0,9.0,58,0.00,,SCT200,0.00,VWS V14.00,2013-02-14 14:54:00,
2013-02-14 09:59:00,36.2,22.9,29.81,East,85,6.0,9.0,58,0.00,,SCT200,0.00,VWS V14.00,2013-02-14 14:59:00,
2013-02-14 10:04:00,36.5,23.1,29.82,North,5,0.0,10.0,58,0.00,,SCT250,0.00,VWS V14.00,2013-02-14 15:04:00,
2013-02-14 10:09:00,36.8,23.0,29.82,East,82,5.0,10.0,57,0.00,,SCT250,0.00,VWS V14.00,2013-02-14 15:09:00,
2013-02-14 10:15:00,36.7,22.5,29.81,NNE,26,7.0,13.0,56,0.00,,SCT250,0.00,VWS V14.00,2013-02-14 15:15:00,
2013-02-14 10:20:00,36.8,22.6,29.81,NE,54,0.0,13.0,56,0.00,,SCT250,0.00,VWS V14.00,2013-02-14 15:20:00,
2013-02-14 10:25:00,36.8,22.2,29.81,ENE,77,1.0,13.0,55,0.00,,SCT250,0.00,VWS V14.00,2013-02-14 15:25:00,
2013-02-14 10:30:00,37.3,22.6,29.81,ENE,63,9.0,9.0,55,0.00,,SCT250,0.00,VWS V14.00,2013-02-14 15:30:00,
2013-02-14 10:35:00,36.7,21.6,29.82,West,265,0.0,9.0,54,0.00,,SCT250,0.00,VWS V14.00,2013-02-14 15:35:00,
2013-02-14 10:40:00,37.2,21.7,29.82,West,265,3.0,9.0,53,0.00,,SCT250,0.00,VWS V14.00,2013-02-14 15:40:00,
2013-02-14 10:45:00,37.4,21.4,29.82,ENE,66,2.0,9.0,52,0.00,,SCT250,0.00,VWS V14.00,2013-02-14 15:45:00,
2013-02-14 10:50:00,38.1,21.6,29.82,SW,235,6.0,12.0,51,0.00,,SCT250,0.00,VWS V14.00,2013-02-14 15:50:00,
2013-02-14 10:55:00,38.6,21.6,29.82,West,277,1.0,12.0,50,0.00,,SCT250,0.00,VWS V14.00,2013-02-14 15:55:00,
2013-02-14 11:00:00,38.8,21.8,29.82,WNW,300,5.0,9.0,50,0.00,,SCT250,0.00,VWS V14.00,2013-02-14 16:00:00,
2013-02-14 11:05:00,38.5,20.5,29.82,SW,229,10.0,10.0,48,0.00,,SCT250,0.00,VWS V14.00,2013-02-14 16:05:00,
2013-02-14 11:10:00,38.5,20.5,29.82,NW,304,4.0,10.0,48,0.00,,SCT250,0.00,VWS V14.00,2013-02-14 16:10:00,
2013-02-14 11:15:00,39.0,21.0,29.82,NE,46,0.0,10.0,48,0.00,,SCT250,0.00,VWS V14.00,2013-02-14 16:15:00,
2013-02-14 11:20:00,38.5,20.5,29.82,ENE,71,3.0,10.0,48,0.00,,SCT250,0.00,VWS V14.00,2013-02-14 16:20:00,
2013-02-14 11:25:00,38.0,20.1,29.82,NNW,333,4.0,14.0,48,0.00,,SCT250,0.00,VWS V14.00,2013-02-14 16:25:00,
2013-02-14 11:30:00,38.8,20.8,29.82,WSW,254,6.0,7.0,48,0.00,,SCT250,0.00,VWS V14.00,2013-02-14 16:30:00,
2013-02-14 11:35:00,39.0,20.5,29.82,West,269,6.0,11.0,47,0.00,,SCT250,0.00,VWS V14.00,2013-02-14 16:35:00,
2013-02-14 11:40:00,38.6,20.6,29.82,WSW,258,3.0,12.0,48,0.00,,SCT250,0.00,VWS V14.00,2013-02-14 16:40:00,
2013-02-14 11:45:00,38.2,20.7,29.82,West,266,5.0,12.0,49,0.00,,SCT250,0.00,VWS V14.00,2013-02-14 16:45:00,
2013-02-14 11:50:00,38.9,20.9,29.82,East,100,1.0,12.0,48,0.00,,SCT250,0.00,VWS V14.00,2013-02-14 16:50:00,
2013-02-14 11:55:00,38.7,21.2,29.83,WSW,258,7.0,12.0,49,0.00,,SCT250,0.00,VWS V14.00,2013-02-14 16:55:00,
2013-02-14 12:00:00,38.0,20.5,29.83,NE,56,1.0,5.0,49,0.00,,BKN046,0.00,VWS V14.00,2013-02-14 17:00:00,
2013-02-14 12:05:00,38.7,21.7,29.82,WNW,294,5.0,6.0,50,0.00,,BKN046,0.00,VWS V14.00,2013-02-14 17:05:00,
2013-02-14 12:10:00,39.9,20.8,29.82,ESE,115,2.0,10.0,46,0.00,,BKN046,0.00,VWS V14.00,2013-02-14 17:10:00,
2013-02-14 12:15:00,40.0,20.9,29.82,NW,313,2.0,10.0,46,0.00,,BKN046,0.00,VWS V14.00,2013-02-14 17:15:00,
2013-02-14 12:20:00,40.2,20.6,29.82,NNW,342,4.0,10.0,45,0.00,,BKN046,0.00,VWS V14.00,2013-02-14 17:20:00,
2013-02-14 12:25:00,39.7,21.1,29.82,NW,316,6.0,11.0,47,0.00,,BKN046,0.00,VWS V14.00,2013-02-14 17:25:00,
2013-02-14 12:30:00,39.8,20.7,29.82,WNW,292,2.0,8.0,46,0.00,,BKN046,0.00,VWS V14.00,2013-02-14 17:30:00,
2013-02-14 12:35:00,39.7,20.6,29.82,NNW,346,1.0,12.0,46,0.00,,BKN046,0.00,VWS V14.00,2013-02-14 17:35:00,
2013-02-14 12:40:00,39.6,20.0,29.82,NNW,328,1.0,12.0,45,0.00,,BKN046,0.00,VWS V14.00,2013-02-14 17:40:00,
2013-02-14 12:45:00,39.7,20.1,29.82,WNW,300,4.0,12.0,45,0.00,,BKN046,0.00,VWS V14.00,2013-02-14 17:45:00,
2013-02-14 12:50:00,39.6,20.5,29.82,NNW,346,0.0,12.0,46,0.00,,BKN046,0.00,VWS V14.00,2013-02-14 17:50:00,
2013-02-14 12:55:00,39.5,20.5,29.82,West,266,2.0,12.0,46,0.00,,BKN046,0.00,VWS V14.00,2013-02-14 17:55:00,
2013-02-14 13:00:00,40.0,20.9,29.82,ENE,62,2.0,2.0,46,0.00,,BKN046,0.00,VWS V14.00,2013-02-14 18:00:00,
2013-02-14 13:05:00,40.5,20.9,29.82,WNW,294,2.0,8.0,45,0.00,,BKN046,0.00,VWS V14.00,2013-02-14 18:05:00,
2013-02-14 13:10:00,40.4,20.8,29.82,WNW,288,1.0,8.0,45,0.00,,BKN046,0.00,VWS V14.00,2013-02-14 18:10:00,
2013-02-14 13:15:00,39.5,20.5,29.81,East,82,2.0,8.0,46,0.00,,BKN046,0.00,VWS V14.00,2013-02-14 18:15:00,
2013-02-14 13:20:00,40.1,20.0,29.82,West,280,1.0,10.0,44,0.00,,BKN046,0.00,VWS V14.00,2013-02-14 18:20:00,
2013-02-14 13:25:00,40.5,20.3,29.82,SE,133,1.0,10.0,44,0.00,,BKN046,0.00,VWS V14.00,2013-02-14 18:25:00,
2013-02-14 13:30:00,40.8,20.0,29.82,West,281,1.0,9.0,43,0.00,,BKN046,0.00,VWS V14.00,2013-02-14 18:30:00,
2013-02-14 13:35:00,40.9,20.7,29.82,NE,53,2.0,9.0,44,0.00,,BKN046,0.00,VWS V14.00,2013-02-14 18:35:00,
2013-02-14 13:40:00,40.6,19.9,29.82,WSW,252,2.0,9.0,43,0.00,,BKN046,0.00,VWS V14.00,2013-02-14 18:40:00,
2013-02-14 13:45:00,40.6,20.4,29.82,ENE,59,1.0,9.0,44,0.00,,BKN046,0.00,VWS V14.00,2013-02-14 18:45:00,
2013-02-14 13:50:00,40.9,20.7,29.82,SSE,158,5.0,9.0,44,0.00,,BKN046,0.00,VWS V14.00,2013-02-14 18:50:00,
2013-02-14 13:55:00,40.6,19.9,29.82,SW,232,3.0,9.0,43,0.00,,BKN046,0.00,VWS V14.00,2013-02-14 18:55:00,
2013-02-14 14:00:00,41.4,20.6,29.82,WNW,288,2.0,4.0,43,0.00,,BKN046,0.00,VWS V14.00,2013-02-14 19:00:00,
2013-02-14 14:05:00,40.8,20.0,29.82,SW,228,3.0,7.0,43,0.00,,FEW048,0.00,VWS V14.00,2013-02-14 19:05:00,
2013-02-14 14:10:00,40.6,20.9,29.82,East,92,0.0,8.0,45,0.00,,FEW048,0.00,VWS V14.00,2013-02-14 19:10:00,
2013-02-14 14:15:00,41.0,20.8,29.82,WNW,286,2.0,8.0,44,0.00,,FEW048,0.00,VWS V14.00,2013-02-14 19:15:00,
2013-02-14 14:20:00,40.2,20.0,29.83,East,80,10.0,12.0,44,0.00,,FEW048,0.00,VWS V14.00,2013-02-14 19:20:00,
2013-02-14 14:25:00,40.5,19.8,29.83,North,9,2.0,12.0,43,0.00,,FEW048,0.00,VWS V14.00,2013-02-14 19:25:00,
2013-02-14 14:30:00,40.5,20.3,29.83,NNE,24,2.0,6.0,44,0.00,,FEW048,0.00,VWS V14.00,2013-02-14 19:30:00,
2013-02-14 14:35:00,41.0,20.2,29.83,SW,216,0.0,7.0,43,0.00,,FEW048,0.00,VWS V14.00,2013-02-14 19:35:00,
2013-02-14 14:40:00,40.9,20.1,29.83,West,259,5.0,8.0,43,0.00,,FEW048,0.00,VWS V14.00,2013-02-14 19:40:00,
2013-02-14 14:45:00,40.7,20.0,29.83,NW,321,1.0,8.0,43,0.00,,FEW048,0.00,VWS V14.00,2013-02-14 19:45:00,
2013-02-14 14:50:00,40.8,20.0,29.83,West,259,6.0,8.0,43,0.00,,FEW048,0.00,VWS V14.00,2013-02-14 19:50:00,
2013-02-14 14:55:00,40.8,20.0,29.84,WNW,289,3.0,12.0,43,0.00,,FEW048,0.00,VWS V14.00,2013-02-14 19:55:00,
2013-02-14 15:00:00,40.9,19.6,29.84,West,270,5.0,7.0,42,0.00,,FEW048,0.00,VWS V14.00,2013-02-14 20:00:00,
2013-02-14 15:05:00,40.9,19.6,29.84,West,276,3.0,8.0,42,0.00,,FEW050,0.00,VWS V14.00,2013-02-14 20:05:00,
2013-02-14 15:10:00,41.1,19.8,29.84,NNW,346,2.0,8.0,42,0.00,,FEW050,0.00,VWS V14.00,2013-02-14 20:10:00,
2013-02-14 15:15:00,40.7,19.4,29.84,West,261,5.0,8.0,42,0.00,,FEW050,0.00,VWS V14.00,2013-02-14 20:15:00,
2013-02-14 15:20:00,40.4,19.1,29.84,West,279,4.0,8.0,42,0.00,,FEW050,0.00,VWS V14.00,2013-02-14 20:20:00,
2013-02-14 15:25:00,40.4,19.7,29.84,NNE,17,2.0,8.0,43,0.00,,FEW050,0.00,VWS V14.00,2013-02-14 20:25:00,
2013-02-14 15:30:00,40.5,19.8,29.84,ENE,69,2.0,3.0,43,0.00,,FEW050,0.00,VWS V14.00,2013-02-14 20:30:00,
2013-02-14 15:35:00,40.3,19.6,29.84,NNW,332,2.0,6.0,43,0.00,,FEW050,0.00,VWS V14.00,2013-02-14 20:35:00,
2013-02-14 15:40:00,40.3,19.6,29.84,NNE,24,0.0,6.0,43,0.00,,FEW050,0.00,VWS V14.00,2013-02-14 20:40:00,
2013-02-14 15:45:00,40.1,19.4,29.84,ENE,64,1.0,6.0,43,0.00,,FEW050,0.00,VWS V14.00,2013-02-14 20:45:00,
2013-02-14 15:50:00,40.2,20.6,29.84,NE,49,2.0,6.0,45,0.00,,FEW050,0.00,VWS V14.00,2013-02-14 20:50:00,
2013-02-14 15:55:00,40.0,20.9,29.84,NNW,333,2.0,6.0,46,0.00,,FEW050,0.00,VWS V14.00,2013-02-14 20:55:00,
2013-02-14 16:00:00,39.7,20.1,29.85,North,5,2.0,3.0,45,0.00,,FEW050,0.00,VWS V14.00,2013-02-14 21:00:00,
2013-02-14 16:05:00,39.5,20.5,29.85,ENE,78,3.0,3.0,46,0.00,,FEW050,0.00,VWS V14.00,2013-02-14 21:05:00,
2013-02-14 16:10:00,39.1,20.1,29.85,ENE,78,0.0,3.0,46,0.00,,FEW050,0.00,VWS V14.00,2013-02-14 21:10:00,
2013-02-14 16:15:00,39.0,20.0,29.86,ENE,78,0.0,3.0,46,0.00,,FEW050,0.00,VWS V14.00,2013-02-14 21:15:00,
2013-02-14 16:20:00,38.8,20.3,29.86,ENE,70,0.0,3.0,47,0.00,,FEW050,0.00,VWS V14.00,2013-02-14 21:20:00,
2013-02-14 16:25:00,38.6,21.1,29.86,ENE,70,1.0,3.0,49,0.00,,FEW050,0.00,VWS V14.00,2013-02-14 21:25:00,
2013-02-14 16:30:00,38.5,20.0,29.87,ENE,70,1.0,1.0,47,0.00,,FEW050,0.00,VWS V14.00,2013-02-14 21:30:00,
2013-02-14 16:35:00,38.0,20.5,29.87,ENE,70,0.0,3.0,49,0.00,,FEW050,0.00,VWS V14.00,2013-02-14 21:35:00,
2013-02-14 16:40:00,37.8,21.3,29.88,ENE,70,0.0,3.0,51,0.00,,FEW050,0.00,VWS V14.00,2013-02-14 21:40:00,
2013-02-14 16:45:00,37.2,20.8,29.88,ENE,70,0.0,3.0,51,0.00,,FEW050,0.00,VWS V14.00,2013-02-14 21:45:00,
2013-02-14 16:50:00,36.5,21.5,29.88,ENE,70,0.0,3.0,54,0.00,,FEW050,0.00,VWS V14.00,2013-02-14 21:50:00,
2013-02-14 16:55:00,35.9,20.9,29.88,ENE,70,0.0,3.0,54,0.00,,FEW050,0.00,VWS V14.00,2013-02-14 21:55:00,
2013-02-14 17:00:00,35.4,21.7,29.88,ENE,70,0.0,0.0,57,0.00,,FEW050,0.00,VWS V14.00,2013-02-14 22:00:00,
2013-02-14 17:05:00,34.8,22.3,29.89,ENE,70,0.0,0.0,60,0.00,,FEW050,0.00,VWS V14.00,2013-02-14 22:05:00,
2013-02-14 17:10:00,34.2,22.2,29.89,ENE,70,0.0,0.0,61,0.00,,FEW050,0.00,VWS V14.00,2013-02-14 22:10:00,
2013-02-14 17:15:00,33.5,22.6,29.90,ENE,70,0.0,0.0,64,0.00,,FEW050,0.00,VWS V14.00,2013-02-14 22:15:00,
2013-02-14 17:20:00,33.1,21.5,29.90,ENE,70,0.0,0.0,62,0.00,,FEW050,0.00,VWS V14.00,2013-02-14 22:20:00,
2013-02-14 17:25:00,32.7,22.2,29.90,ENE,70,0.0,0.0,65,0.00,,FEW050,0.00,VWS V14.00,2013-02-14 22:25:00,
2013-02-14 17:30:00,32.3,23.3,29.90,ENE,70,0.0,0.0,69,0.00,,FEW050,0.00,VWS V14.00,2013-02-14 22:30:00,
2013-02-14 17:35:00,31.7,24.0,29.91,ENE,70,0.0,0.0,73,0.00,,FEW050,0.00,VWS V14.00,2013-02-14 22:35:00,
2013-02-14 17:40:00,31.1,22.8,29.90,ENE,70,0.0,0.0,71,0.00,,FEW050,0.00,VWS V14.00,2013-02-14 22:40:00,
2013-02-14 17:45:00,30.6,21.6,29.91,ENE,70,0.0,0.0,69,0.00,,FEW050,0.00,VWS V14.00,2013-02-14 22:45:00,
2013-02-14 17:50:00,30.3,21.7,29.91,ENE,70,0.0,0.0,70,0.00,,FEW050,0.00,VWS V14.00,2013-02-14 22:50:00,
2013-02-14 17:55:00,30.0,22.1,29.91,ENE,70,0.0,0.0,72,0.00,,FEW050,0.00,VWS V14.00,2013-02-14 22:55:00,
2013-02-14 18:00:00,29.6,22.0,29.92,ENE,70,0.0,0.0,73,0.00,,FEW050,0.00,VWS V14.00,2013-02-14 23:00:00,
2013-02-14 18:05:00,29.2,21.6,29.92,ENE,70,0.0,0.0,73,0.00,,FEW050,0.00,VWS V14.00,2013-02-14 23:05:00,
2013-02-14 18:10:00,28.9,21.7,29.92,ENE,70,0.0,0.0,74,0.00,,FEW050,0.00,VWS V14.00,2013-02-14 23:10:00,
2013-02-14 18:15:00,28.6,21.7,29.93,ENE,70,0.0,0.0,75,0.00,,FEW050,0.00,VWS V14.00,2013-02-14 23:15:00,
2013-02-14 18:20:00,28.5,21.9,29.93,ENE,70,0.0,1.0,76,0.00,,FEW050,0.00,VWS V14.00,2013-02-14 23:20:00,
2013-02-14 18:25:00,28.5,21.6,29.93,ENE,70,0.0,1.0,75,0.00,,FEW050,0.00,VWS V14.00,2013-02-14 23:25:00,
2013-02-14 18:30:00,28.3,21.7,29.93,ENE,70,0.0,0.0,76,0.00,,FEW050,0.00,VWS V14.00,2013-02-14 23:30:00,
2013-02-14 18:35:00,28.0,21.4,29.93,ENE,70,0.0,0.0,76,0.00,,FEW050,0.00,VWS V14.00,2013-02-14 23:35:00,
2013-02-14 18:40:00,27.8,21.5,29.93,ENE,70,0.0,0.0,77,0.00,,FEW050,0.00,VWS V14.00,2013-02-14 23:40:00,
2013-02-14 18:45:00,27.7,21.8,29.94,ENE,70,0.0,0.0,78,0.00,,FEW050,0.00,VWS V14.00,2013-02-14 23:45:00,
2013-02-14 18:50:00,27.7,21.4,29.94,ENE,70,0.0,0.0,77,0.00,,FEW050,0.00,VWS V14.00,2013-02-14 23:50:00,
2013-02-14 18:55:00,27.7,21.8,29.94,ENE,70,0.0,0.0,78,0.00,,FEW050,0.00,VWS V14.00,2013-02-14 23:55:00,
2013-02-14 19:00:00,27.8,21.5,29.95,ENE,70,0.0,0.0,77,0.00,,CLR,0.00,VWS V14.00,2013-02-15 00:00:00,
2013-02-14 19:05:00,28.0,21.4,29.95,ENE,70,0.0,0.0,76,0.00,,CLR,0.00,VWS V14.00,2013-02-15 00:05:00,
2013-02-14 19:10:00,28.1,21.8,29.95,ENE,70,0.0,0.0,77,0.00,,CLR,0.00,VWS V14.00,2013-02-15 00:10:00,
2013-02-14 19:15:00,28.1,21.8,29.95,ENE,70,0.0,0.0,77,0.00,,CLR,0.00,VWS V14.00,2013-02-15 00:15:00,
2013-02-14 19:20:00,28.2,21.9,29.95,ENE,70,0.0,0.0,77,0.00,,CLR,0.00,VWS V14.00,2013-02-15 00:20:00,
2013-02-14 19:25:00,28.3,22.0,29.94,ENE,70,0.0,0.0,77,0.00,,CLR,0.00,VWS V14.00,2013-02-15 00:25:00,
2013-02-14 19:30:00,28.5,22.8,29.94,ENE,70,0.0,0.0,79,0.00,,CLR,0.00,VWS V14.00,2013-02-15 00:30:00,
2013-02-14 19:35:00,28.7,23.0,29.94,ENE,70,0.0,0.0,79,0.00,,CLR,0.00,VWS V14.00,2013-02-15 00:35:00,
2013-02-14 19:40:00,28.5,22.8,29.95,ENE,70,1.0,1.0,79,0.00,,CLR,0.00,VWS V14.00,2013-02-15 00:40:00,
2013-02-14 19:45:00,28.3,22.6,29.95,ENE,70,0.0,2.0,79,0.00,,CLR,0.00,VWS V14.00,2013-02-15 00:45:00,
2013-02-14 19:50:00,28.0,22.3,29.95,ENE,70,0.0,2.0,79,0.00,,CLR,0.00,VWS V14.00,2013-02-15 00:50:00,
2013-02-14 19:55:00,27.6,22.2,29.95,ENE,70,0.0,2.0,80,0.00,,CLR,0.00,VWS V14.00,2013-02-15 00:55:00,
2013-02-14 20:00:00,27.4,22.4,29.95,ENE,70,0.0,1.0,81,0.00,,CLR,0.00,VWS V14.00,2013-02-15 01:00:00,
2013-02-14 20:05:00,27.3,22.2,29.95,ENE,70,0.0,1.0,81,0.00,,CLR,0.00,VWS V14.00,2013-02-15 01:05:00,
2013-02-14 20:10:00,27.0,22.0,29.95,ENE,70,0.0,1.0,81,0.00,,CLR,0.00,VWS V14.00,2013-02-15 01:10:00,
2013-02-14 20:15:00,26.6,21.6,29.95,ENE,70,0.0,1.0,81,0.00,,CLR,0.00,VWS V14.00,2013-02-15 01:15:00,
2013-02-14 20:20:00,26.3,21.6,29.94,ENE,70,0.0,1.0,82,0.00,,CLR,0.00,VWS V14.00,2013-02-15 01:20:00,
2013-02-14 20:25:00,26.1,21.6,29.95,ENE,70,0.0,1.0,83,0.00,,CLR,0.00,VWS V14.00,2013-02-15 01:25:00,
2013-02-14 20:30:00,25.9,21.2,29.95,ENE,70,0.0,0.0,82,0.00,,CLR,0.00,VWS V14.00,2013-02-15 01:30:00,
2013-02-14 20:35:00,25.7,21.3,29.95,ENE,70,0.0,0.0,83,0.00,,CLR,0.00,VWS V14.00,2013-02-15 01:35:00,
2013-02-14 20:40:00,25.6,21.2,29.95,ENE,70,0.0,0.0,83,0.00,,CLR,0.00,VWS V14.00,2013-02-15 01:40:00,
2013-02-14 20:45:00,25.5,21.1,29.95,ENE,70,0.0,0.0,83,0.00,,CLR,0.00,VWS V14.00,2013-02-15 01:45:00,
2013-02-14 20:50:00,25.3,21.1,29.95,ENE,70,0.0,0.0,84,0.00,,CLR,0.00,VWS V14.00,2013-02-15 01:50:00,
2013-02-14 20:55:00,24.9,20.8,29.95,ENE,70,0.0,0.0,84,0.00,,CLR,0.00,VWS V14.00,2013-02-15 01:55:00,
2013-02-14 21:00:00,24.8,20.9,29.95,ENE,70,0.0,0.0,85,0.00,,CLR,0.00,VWS V14.00,2013-02-15 02:00:00,
2013-02-14 21:05:00,24.7,20.8,29.95,ENE,70,0.0,0.0,85,0.00,,CLR,0.00,VWS V14.00,2013-02-15 02:05:00,
2013-02-14 21:10:00,24.6,20.7,29.95,ENE,70,0.0,0.0,85,0.00,,CLR,0.00,VWS V14.00,2013-02-15 02:10:00,
2013-02-14 21:15:00,24.3,20.5,29.95,ENE,70,0.0,0.0,85,0.00,,CLR,0.00,VWS V14.00,2013-02-15 02:15:00,
2013-02-14 21:20:00,24.3,20.7,29.94,ENE,70,0.0,0.0,86,0.00,,CLR,0.00,VWS V14.00,2013-02-15 02:20:00,
2013-02-14 21:25:00,24.3,20.7,29.94,ENE,70,0.0,0.0,86,0.00,,CLR,0.00,VWS V14.00,2013-02-15 02:25:00,
2013-02-14 21:30:00,24.1,20.5,29.95,ENE,70,0.0,0.0,86,0.00,,CLR,0.00,VWS V14.00,2013-02-15 02:30:00,
2013-02-14 21:35:00,24.1,20.5,29.95,ENE,70,0.0,0.0,86,0.00,,CLR,0.00,VWS V14.00,2013-02-15 02:35:00,
2013-02-14 21:40:00,23.9,20.1,29.95,ENE,70,0.0,0.0,85,0.00,,CLR,0.00,VWS V14.00,2013-02-15 02:40:00,
2013-02-14 21:45:00,23.8,20.2,29.95,ENE,70,0.0,0.0,86,0.00,,CLR,0.00,VWS V14.00,2013-02-15 02:45:00,
2013-02-14 21:50:00,23.8,20.2,29.95,ENE,70,0.0,0.0,86,0.00,,CLR,0.00,VWS V14.00,2013-02-15 02:50:00,
2013-02-14 21:55:00,23.8,20.5,29.94,ENE,70,0.0,0.0,87,0.00,,CLR,0.00,VWS V14.00,2013-02-15 02:55:00,
2013-02-14 22:00:00,23.6,20.3,29.94,ENE,70,0.0,0.0,87,0.00,,CLR,0.00,VWS V14.00,2013-02-15 03:00:00,
2013-02-14 22:05:00,23.5,20.5,29.94,ENE,70,0.0,0.0,88,0.00,,CLR,0.00,VWS V14.00,2013-02-15 03:05:00,
2013-02-14 22:10:00,23.5,20.5,29.94,ENE,70,0.0,0.0,88,0.00,,CLR,0.00,VWS V14.00,2013-02-15 03:10:00,
2013-02-14 22:15:00,23.4,20.4,29.94,ENE,70,0.0,0.0,88,0.00,,CLR,0.00,VWS V14.00,2013-02-15 03:15:00,
2013-02-14 22:20:00,23.3,20.3,29.94,ENE,70,0.0,0.0,88,0.00,,CLR,0.00,VWS V14.00,2013-02-15 03:20:00,
2013-02-14 22:25:00,23.1,20.1,29.94,ENE,70,0.0,0.0,88,0.00,,CLR,0.00,VWS V14.00,2013-02-15 03:25:00,
2013-02-14 22:30:00,22.9,19.9,29.94,ENE,70,0.0,0.0,88,0.00,,CLR,0.00,VWS V14.00,2013-02-15 03:30:00,
2013-02-14 22:35:00,22.9,19.9,29.94,ENE,70,0.0,0.0,88,0.00,,CLR,0.00,VWS V14.00,2013-02-15 03:35:00,
2013-02-14 22:40:00,22.9,20.1,29.94,ENE,70,0.0,0.0,89,0.00,,CLR,0.00,VWS V14.00,2013-02-15 03:40:00,
2013-02-14 22:45:00,22.7,19.7,29.94,ENE,70,0.0,0.0,88,0.00,,CLR,0.00,VWS V14.00,2013-02-15 03:45:00,
2013-02-14 22:50:00,22.7,20.0,29.94,ENE,70,0.0,0.0,89,0.00,,CLR,0.00,VWS V14.00,2013-02-15 03:50:00,
2013-02-14 22:55:00,22.6,19.9,29.95,ENE,70,0.0,0.0,89,0.00,,CLR,0.00,VWS V14.00,2013-02-15 03:55:00,
2013-02-14 23:00:00,22.6,19.9,29.95,ENE,70,0.0,0.0,89,0.00,,CLR,0.00,VWS V14.00,2013-02-15 04:00:00,
2013-02-14 23:05:00,22.6,19.9,29.95,ENE,70,0.0,0.0,89,0.00,,CLR,0.00,VWS V14.00,2013-02-15 04:05:00,
2013-02-14 23:10:00,22.4,19.7,29.95,ENE,70,0.0,0.0,89,0.00,,CLR,0.00,VWS V14.00,2013-02-15 04:10:00,
2013-02-14 23:15:00,22.2,19.5,29.96,ENE,70,0.0,0.0,89,0.00,,CLR,0.00,VWS V14.00,2013-02-15 04:15:00,
2013-02-14 23:20:00,22.2,19.7,29.95,ENE,70,0.0,0.0,90,0.00,,CLR,0.00,VWS V14.00,2013-02-15 04:20:00,
2013-02-14 23:25:00,22.0,19.3,29.95,ENE,70,0.0,0.0,89,0.00,,CLR,0.00,VWS V14.00,2013-02-15 04:25:00,
2013-02-14 23:30:00,21.8,19.1,29.95,ENE,70,0.0,0.0,89,0.00,,CLR,0.00,VWS V14.00,2013-02-15 04:30:00,
2013-02-14 23:35:00,21.9,19.4,29.95,ENE,70,0.0,0.0,90,0.00,,CLR,0.00,VWS V14.00,2013-02-15 04:35:00,
2013-02-14 23:40:00,22.1,19.6,29.95,ENE,70,0.0,0.0,90,0.00,,CLR,0.00,VWS V14.00,2013-02-15 04:40:00,
2013-02-14 23:45:00,22.2,19.7,29.96,ENE,70,0.0,0.0,90,0.00,,CLR,0.00,VWS V14.00,2013-02-15 04:45:00,
2013-02-14 23:50:00,22.3,19.8,29.96,ENE,70,0.0,0.0,90,0.00,,CLR,0.00,VWS V14.00,2013-02-15 04:50:00,
2013-02-14 23:55:00,22.3,19.8,29.96,ENE,70,0.0,0.0,90,0.00,,CLR,0.00,VWS V14.00,2013-02-15 04:55:00,